Time;durP1;ratioP1;P1;durP2;ratioP2;P2;SDS_P1;SDS_P2;PMS_P1;PMS_P2;Temp;Humidity;BMP_temperature;BMP_pressure;BME280_temperature;BME280_humidity;BME280_pressure;Samples;Min_cycle;Max_cycle;Signal;HPM_P1;HPM_P2
2023/08/27 00:01:41;;;;;;;0.70;0.70;;;14.20;99.90;;;;;;5120831;27;20042;-84
2023/08/27 00:04:07;;;;;;;0.80;0.80;;;14.60;99.90;;;;;;5122762;27;20050;-84
2023/08/27 00:06:33;;;;;;;0.80;0.80;;;14.30;99.90;;;;;;5121113;27;20054;-84
2023/08/27 00:08:59;;;;;;;0.80;0.80;;;14.00;99.90;;;;;;5121831;27;20157;-84
2023/08/27 00:11:25;;;;;;;0.80;0.80;;;14.20;99.90;;;;;;5120322;27;20542;-84
2023/08/27 00:13:50;;;;;;;0.80;0.80;;;14.10;99.90;;;;;;5124676;27;20057;-84
2023/08/27 00:16:16;;;;;;;0.82;0.82;;;13.90;99.90;;;;;;5121380;27;20043;-84
2023/08/27 00:18:42;;;;;;;0.90;0.90;;;13.70;99.90;;;;;;5122978;27;20043;-84
2023/08/27 00:21:08;;;;;;;0.90;0.90;;;13.70;99.90;;;;;;5123856;27;20046;-84
2023/08/27 00:23:36;;;;;;;0.98;0.98;;;13.90;99.90;;;;;;5120378;27;20742;-84
2023/08/27 00:26:02;;;;;;;0.95;0.95;;;13.60;99.90;;;;;;5141568;27;20488;-83
2023/08/27 00:28:28;;;;;;;0.93;0.93;;;13.60;99.90;;;;;;5125556;27;20125;-84
2023/08/27 00:31:01;;;;;;;0.98;0.98;;;13.50;99.90;;;;;;5114101;27;20154;-84
2023/08/27 00:33:27;;;;;;;0.93;0.93;;;13.60;99.90;;;;;;5121078;27;20866;-84
2023/08/27 00:35:53;;;;;;;1.30;1.30;;;13.50;99.90;;;;;;5120066;27;20047;-84
2023/08/27 00:38:19;;;;;;;1.00;1.00;;;13.60;99.90;;;;;;5121793;27;20051;-84
2023/08/27 00:40:45;;;;;;;1.00;1.00;;;13.80;99.90;;;;;;5117479;27;20488;-84
2023/08/27 00:43:10;;;;;;;0.98;0.98;;;13.90;99.90;;;;;;5119872;27;20060;-84
2023/08/27 00:45:36;;;;;;;0.98;0.98;;;13.70;99.90;;;;;;5103275;27;20598;-84
2023/08/27 00:48:03;;;;;;;1.00;1.00;;;13.80;99.90;;;;;;5116042;27;20043;-84
2023/08/27 00:50:30;;;;;;;1.05;1.05;;;13.80;99.90;;;;;;5122695;27;20500;-84
2023/08/27 00:52:56;;;;;;;1.20;1.20;;;13.60;99.90;;;;;;5122064;27;20077;-84
2023/08/27 00:55:22;;;;;;;1.05;1.05;;;13.50;99.90;;;;;;5118975;27;20081;-84
2023/08/27 00:57:49;;;;;;;1.00;1.00;;;13.60;99.90;;;;;;5122609;27;20150;-84
2023/08/27 01:00:16;;;;;;;1.00;1.00;;;13.70;99.90;;;;;;5120267;27;20066;-84
2023/08/27 01:02:43;;;;;;;0.98;0.98;;;13.70;99.90;;;;;;5121565;27;20137;-84
2023/08/27 01:05:11;;;;;;;1.00;1.00;;;13.70;99.90;;;;;;5138279;27;20464;-83
2023/08/27 01:07:58;;;;;;;0.98;0.98;;;13.50;99.90;;;;;;5122688;27;20045;-83
2023/08/27 01:11:02;;;;;;;0.93;0.93;;;13.60;99.90;;;;;;5104338;27;20034;-84
2023/08/27 01:13:54;;;;;;;0.90;0.90;;;13.90;99.90;;;;;;5120060;27;20148;-84
2023/08/27 01:16:21;;;;;;;0.88;0.88;;;13.60;99.90;;;;;;5113628;27;20055;-85
2023/08/27 01:18:49;;;;;;;0.80;0.80;;;13.40;99.90;;;;;;5121204;27;20035;-84
2023/08/27 01:21:27;;;;;;;0.75;0.75;;;13.70;99.90;;;;;;5118830;27;20109;-84
2023/08/27 01:23:53;;;;;;;0.80;0.80;;;13.50;99.90;;;;;;5121941;27;20078;-84
2023/08/27 01:26:41;;;;;;;0.73;0.73;;;13.70;99.90;;;;;;5120143;27;20120;-85
2023/08/27 01:29:25;;;;;;;0.70;0.70;;;13.80;99.90;;;;;;5122885;27;20735;-84
2023/08/27 01:32:24;;;;;;;0.70;0.70;;;14.10;99.90;;;;;;5106301;27;20045;-83
2023/08/27 01:34:53;;;;;;;0.60;0.60;;;14.00;99.90;;;;;;5121683;27;20602;-83
2023/08/27 01:37:20;;;;;;;0.70;0.70;;;14.20;99.90;;;;;;5122032;27;20065;-83
2023/08/27 01:39:45;;;;;;;0.68;0.68;;;13.80;99.90;;;;;;5136585;27;20049;-84
2023/08/27 01:42:12;;;;;;;0.70;0.70;;;14.20;99.90;;;;;;5115257;27;20051;-84
2023/08/27 01:44:38;;;;;;;0.80;0.80;;;13.90;99.90;;;;;;5100021;27;20125;-84
2023/08/27 01:47:05;;;;;;;0.73;0.73;;;13.90;99.90;;;;;;5118026;27;20051;-84
2023/08/27 01:49:31;;;;;;;0.80;0.80;;;14.00;99.90;;;;;;5121199;27;20062;-84
2023/08/27 01:51:56;;;;;;;0.75;0.75;;;14.20;99.90;;;;;;5122051;27;20039;-84
2023/08/27 01:54:22;;;;;;;0.80;0.80;;;14.40;99.90;;;;;;5118756;27;20484;-84
2023/08/27 01:56:48;;;;;;;0.80;0.80;;;14.40;99.90;;;;;;5119730;27;20058;-84
2023/08/27 01:59:13;;;;;;;0.80;0.80;;;14.40;99.90;;;;;;5116152;27;20049;-84
2023/08/27 02:01:39;;;;;;;0.82;0.82;;;14.00;99.90;;;;;;5124173;27;20050;-84
2023/08/27 02:04:05;;;;;;;0.90;0.90;;;14.10;99.90;;;;;;5117786;27;20476;-84
2023/08/27 02:06:30;;;;;;;0.90;0.90;;;14.40;99.90;;;;;;5120996;27;20078;-84
2023/08/27 02:08:56;;;;;;;1.00;1.00;;;14.10;99.90;;;;;;5121388;27;20039;-84
2023/08/27 02:11:22;;;;;;;0.90;0.90;;;14.10;99.90;;;;;;5121351;27;20078;-84
2023/08/27 02:13:47;;;;;;;1.00;1.00;;;14.00;99.90;;;;;;5119983;27;20060;-84
2023/08/27 02:16:13;;;;;;;0.85;0.85;;;14.30;99.90;;;;;;5113941;27;20107;-84
2023/08/27 02:18:39;;;;;;;0.90;0.90;;;14.40;99.90;;;;;;5120359;27;20054;-84
2023/08/27 02:21:05;;;;;;;0.80;0.80;;;14.00;99.90;;;;;;5120452;27;20043;-84
2023/08/27 02:23:30;;;;;;;0.90;0.90;;;14.10;99.90;;;;;;5121507;27;20763;-84
2023/08/27 02:25:56;;;;;;;1.00;1.00;;;14.20;99.90;;;;;;5119750;27;20148;-84
2023/08/27 02:28:22;;;;;;;0.93;0.93;;;13.80;99.90;;;;;;5121102;27;20054;-83
2023/08/27 02:30:53;;;;;;;0.95;0.95;;;13.70;99.90;;;;;;5120452;27;20135;-83
2023/08/27 02:33:19;;;;;;;1.08;1.08;;;13.40;99.90;;;;;;5119312;27;20050;-83
2023/08/27 02:35:45;;;;;;;0.98;0.98;;;13.40;99.90;;;;;;5117754;27;20038;-83
2023/08/27 02:38:10;;;;;;;1.02;1.02;;;13.50;99.90;;;;;;5116241;27;20099;-84
2023/08/27 02:40:38;;;;;;;0.98;0.98;;;13.70;99.90;;;;;;5119656;27;20161;-83
2023/08/27 02:43:04;;;;;;;3.30;3.10;;;13.70;99.90;;;;;;5122691;27;20049;-84
2023/08/27 02:45:30;;;;;;;0.90;0.90;;;13.70;99.90;;;;;;5122075;27;20042;-83
2023/08/27 02:47:55;;;;;;;0.82;0.82;;;13.60;99.90;;;;;;5121192;27;20198;-83
2023/08/27 02:50:21;;;;;;;0.85;0.85;;;13.70;99.90;;;;;;5121593;27;20055;-84
2023/08/27 02:52:47;;;;;;;0.80;0.80;;;14.00;99.90;;;;;;5137654;27;20110;-84
2023/08/27 02:55:13;;;;;;;0.75;0.75;;;13.70;99.90;;;;;;5121225;27;20082;-84
2023/08/27 02:57:38;;;;;;;0.80;0.80;;;13.90;99.90;;;;;;5118927;27;20043;-84
2023/08/27 03:00:05;;;;;;;0.85;0.85;;;13.50;99.90;;;;;;5121907;27;20076;-83
2023/08/27 03:02:30;;;;;;;0.82;0.82;;;13.50;99.90;;;;;;5123750;27;20038;-83
2023/08/27 03:05:01;;;;;;;0.80;0.80;;;13.70;99.90;;;;;;5103938;27;20468;-84
2023/08/27 03:07:27;;;;;;;0.82;0.82;;;13.80;99.90;;;;;;5119174;27;20053;-84
2023/08/27 03:09:52;;;;;;;0.88;0.88;;;13.40;99.90;;;;;;5119698;27;20043;-83
2023/08/27 03:12:18;;;;;;;0.93;0.93;;;13.50;99.90;;;;;;5135015;27;20050;-84
2023/08/27 03:14:43;;;;;;;0.85;0.85;;;13.40;99.90;;;;;;5118272;27;20047;-84
2023/08/27 03:17:09;;;;;;;0.73;0.73;;;13.50;99.90;;;;;;5120783;27;20132;-83
2023/08/27 03:19:35;;;;;;;0.80;0.80;;;13.60;99.90;;;;;;5101152;27;20050;-84
2023/08/27 03:22:01;;;;;;;0.80;0.80;;;13.50;99.90;;;;;;5130131;27;20046;-83
2023/08/27 03:24:26;;;;;;;0.70;0.70;;;13.40;99.90;;;;;;5119960;27;20043;-84
2023/08/27 03:26:52;;;;;;;0.70;0.70;;;13.60;99.90;;;;;;5118318;27;20153;-84
2023/08/27 03:29:18;;;;;;;0.70;0.70;;;13.60;99.90;;;;;;5120912;27;20043;-84
2023/08/27 03:31:44;;;;;;;0.70;0.70;;;13.70;99.90;;;;;;5141563;27;20049;-84
2023/08/27 03:34:09;;;;;;;0.90;0.90;;;13.60;99.90;;;;;;5112470;27;20799;-84
2023/08/27 03:36:35;;;;;;;0.90;0.90;;;13.70;99.90;;;;;;5106885;27;20053;-83
2023/08/27 03:39:01;;;;;;;0.80;0.80;;;13.80;99.90;;;;;;5125981;27;20050;-84
2023/08/27 03:41:27;;;;;;;0.75;0.75;;;13.70;99.90;;;;;;5137009;27;20034;-84
2023/08/27 03:43:52;;;;;;;0.70;0.70;;;13.80;99.90;;;;;;5122402;27;20066;-84
2023/08/27 03:46:18;;;;;;;0.80;0.80;;;13.80;99.90;;;;;;5127632;27;20039;-84
2023/08/27 03:48:44;;;;;;;0.77;0.77;;;13.70;99.90;;;;;;5124664;27;20041;-84
2023/08/27 03:51:09;;;;;;;0.85;0.85;;;14.20;99.90;;;;;;5122865;27;20046;-84
2023/08/27 03:53:36;;;;;;;0.70;0.70;;;14.20;99.90;;;;;;5120786;27;20503;-84
2023/08/27 03:56:05;;;;;;;0.93;0.93;;;14.30;99.90;;;;;;5126175;27;20745;-84
2023/08/27 03:58:31;;;;;;;0.90;0.90;;;13.90;99.90;;;;;;5106257;27;20088;-84
2023/08/27 04:00:57;;;;;;;1.00;1.00;;;14.00;99.90;;;;;;5126145;27;20051;-84
2023/08/27 04:03:23;;;;;;;0.90;0.90;;;14.10;99.90;;;;;;5102829;27;20039;-83
2023/08/27 04:05:49;;;;;;;0.90;0.90;;;14.30;99.90;;;;;;5106856;27;20450;-84
2023/08/27 04:08:18;;;;;;;1.05;1.05;;;14.00;99.90;;;;;;5124464;27;20050;-84
2023/08/27 04:10:53;;;;;;;1.13;1.13;;;14.00;99.90;;;;;;5125127;27;20046;-84
2023/08/27 04:13:20;;;;;;;1.15;1.15;;;14.20;99.90;;;;;;5126799;27;20054;-83
2023/08/27 04:16:07;;;;;;;1.00;1.00;;;13.90;99.90;;;;;;5125169;27;20031;-83
2023/08/27 04:18:33;;;;;;;0.88;0.88;;;14.20;99.90;;;;;;5122904;27;20406;-84
2023/08/27 04:20:59;;;;;;;0.95;0.95;;;13.80;99.90;;;;;;5107183;27;20039;-83
2023/08/27 04:23:25;;;;;;;0.85;0.85;;;14.10;99.90;;;;;;5124193;27;20074;-84
2023/08/27 04:25:52;;;;;;;0.93;0.93;;;13.90;99.90;;;;;;5120678;27;20063;-84
2023/08/27 04:28:18;;;;;;;0.90;0.90;;;13.80;99.90;;;;;;5122841;27;20058;-84
2023/08/27 04:30:46;;;;;;;1.00;1.00;;;14.10;99.90;;;;;;5123371;27;20566;-83
2023/08/27 04:33:12;;;;;;;0.88;0.88;;;14.10;99.90;;;;;;5126309;27;20082;-84
2023/08/27 04:35:40;;;;;;;0.90;0.90;;;14.10;99.90;;;;;;5125519;27;20444;-83
2023/08/27 04:38:06;;;;;;;0.90;0.90;;;13.90;99.90;;;;;;5123766;27;20042;-84
2023/08/27 04:40:32;;;;;;;1.00;1.00;;;13.90;99.90;;;;;;5121221;27;20039;-84
2023/08/27 04:42:58;;;;;;;1.05;1.05;;;13.90;99.90;;;;;;5127024;27;20053;-84
2023/08/27 04:45:24;;;;;;;0.98;0.98;;;14.20;99.90;;;;;;5118577;27;20055;-84
2023/08/27 04:47:50;;;;;;;1.10;1.10;;;13.90;99.90;;;;;;5118577;27;20760;-84
2023/08/27 04:50:16;;;;;;;1.00;1.00;;;14.00;99.90;;;;;;5124223;27;20046;-84
2023/08/27 04:52:41;;;;;;;0.90;0.90;;;14.00;99.90;;;;;;5119987;27;20426;-84
2023/08/27 04:55:07;;;;;;;0.80;0.80;;;13.70;99.90;;;;;;5126619;27;20045;-84
2023/08/27 04:57:34;;;;;;;0.80;0.80;;;13.90;99.90;;;;;;5122464;27;20046;-83
2023/08/27 05:00:04;;;;;;;0.90;0.90;;;14.10;99.90;;;;;;5123626;27;20078;-84
2023/08/27 05:02:29;;;;;;;1.10;1.10;;;13.90;99.90;;;;;;5119888;27;20046;-84
2023/08/27 05:04:55;;;;;;;1.00;1.00;;;14.10;99.90;;;;;;5124121;27;20103;-84
2023/08/27 05:07:21;;;;;;;0.90;0.90;;;14.40;99.90;;;;;;5126213;27;20472;-84
2023/08/27 05:09:46;;;;;;;0.93;0.93;;;14.40;99.90;;;;;;5124443;27;20038;-84
2023/08/27 05:12:12;;;;;;;1.00;1.00;;;14.40;99.90;;;;;;5124316;27;20094;-84
2023/08/27 05:14:38;;;;;;;1.00;1.00;;;14.50;99.90;;;;;;5120972;27;20587;-85
2023/08/27 05:17:03;;;;;;;1.23;1.23;;;14.30;99.90;;;;;;5125224;27;20053;-85
2023/08/27 05:19:29;;;;;;;1.30;1.30;;;14.30;99.90;;;;;;5132699;27;20058;-86
2023/08/27 05:21:55;;;;;;;1.23;1.23;;;14.70;99.90;;;;;;5122041;27;20054;-86
2023/08/27 05:24:20;;;;;;;1.52;1.42;;;14.30;99.90;;;;;;5126677;27;20050;-85
2023/08/27 05:26:47;;;;;;;1.10;1.10;;;14.50;99.90;;;;;;5123748;27;20050;-84
2023/08/27 05:29:12;;;;;;;1.13;1.13;;;14.60;99.90;;;;;;5123373;27;20047;-85
2023/08/27 05:31:38;;;;;;;1.30;1.30;;;14.80;99.90;;;;;;5125541;27;20050;-86
2023/08/27 05:34:04;;;;;;;1.50;1.40;;;14.70;99.90;;;;;;5103209;27;20598;-87
2023/08/27 05:36:30;;;;;;;1.70;1.60;;;15.00;99.90;;;;;;5126466;27;20042;-86
2023/08/27 05:38:57;;;;;;;2.05;1.95;;;15.10;99.90;;;;;;5104081;27;20061;-88
2023/08/27 05:41:23;;;;;;;2.13;2.03;;;16.40;99.90;;;;;;5124241;27;20054;-88
2023/08/27 05:43:49;;;;;;;1.70;1.60;;;15.90;99.90;;;;;;5106549;27;20479;-89
2023/08/27 05:46:15;;;;;;;1.92;1.83;;;15.70;99.90;;;;;;5108640;27;20054;-89
2023/08/27 05:48:41;;;;;;;1.67;1.58;;;15.60;99.90;;;;;;5103028;27;20423;-87
2023/08/27 05:51:06;;;;;;;1.92;1.83;;;16.00;99.90;;;;;;5101139;27;20049;-86
2023/08/27 05:53:32;;;;;;;1.77;1.67;;;15.60;99.90;;;;;;5122486;27;20074;-84
2023/08/27 05:55:58;;;;;;;1.85;1.75;;;15.80;99.90;;;;;;5117784;27;20051;-88
2023/08/27 05:58:24;;;;;;;2.10;2.00;;;15.60;99.90;;;;;;5106834;27;20046;-85
2023/08/27 06:00:56;;;;;;;2.05;1.95;;;15.50;99.90;;;;;;5122284;27;20051;-85
2023/08/27 06:03:22;;;;;;;1.95;1.85;;;15.60;99.90;;;;;;5122499;27;20500;-84
2023/08/27 06:05:48;;;;;;;2.13;2.03;;;15.40;99.90;;;;;;5106432;27;20116;-85
2023/08/27 06:08:14;;;;;;;1.92;1.83;;;15.60;99.90;;;;;;5118458;27;20054;-84
2023/08/27 06:10:43;;;;;;;2.08;1.98;;;15.50;99.90;;;;;;5139522;27;20058;-85
2023/08/27 06:13:09;;;;;;;2.15;2.05;;;15.80;99.90;;;;;;5119565;27;20503;-87
2023/08/27 06:15:34;;;;;;;2.05;1.95;;;15.50;99.90;;;;;;5124107;27;20555;-88
2023/08/27 06:18:03;;;;;;;2.15;2.05;;;15.30;99.90;;;;;;5120675;27;20058;-86
2023/08/27 06:20:33;;;;;;;2.15;2.05;;;15.50;99.90;;;;;;5098945;27;20057;-87
2023/08/27 06:23:04;;;;;;;2.25;2.15;;;15.30;99.90;;;;;;5117749;27;20118;-92
2023/08/27 06:25:34;;;;;;;2.10;2.00;;;15.30;99.90;;;;;;5103943;27;20035;-92
2023/08/27 06:28:03;;;;;;;1.98;1.88;;;15.40;99.90;;;;;;5106860;27;20054;-87
2023/08/27 06:30:29;;;;;;;2.03;1.92;;;15.30;99.90;;;;;;5133663;27;20121;-90
2023/08/27 06:32:55;;;;;;;1.90;1.80;;;15.20;99.90;;;;;;5102980;27;20039;-86
2023/08/27 06:35:21;;;;;;;1.85;1.75;;;15.30;99.90;;;;;;5115193;27;20864;-88
2023/08/27 06:37:46;;;;;;;1.92;1.83;;;14.90;99.90;;;;;;5115653;27;20092;-89
2023/08/27 06:40:13;;;;;;;1.88;1.77;;;14.90;99.90;;;;;;5096667;27;20487;-88
2023/08/27 06:42:40;;;;;;;1.88;1.77;;;15.20;99.90;;;;;;5104841;27;20133;-87
2023/08/27 06:45:06;;;;;;;2.00;1.90;;;15.00;99.90;;;;;;5103437;27;20066;-87
2023/08/27 06:47:32;;;;;;;1.60;1.50;;;15.20;99.90;;;;;;5116134;27;20042;-87
2023/08/27 06:49:58;;;;;;;1.75;1.65;;;15.00;99.90;;;;;;5114495;27;20076;-87
2023/08/27 06:52:23;;;;;;;1.65;1.55;;;15.30;99.90;;;;;;5100889;27;20051;-88
2023/08/27 06:54:49;;;;;;;1.80;1.70;;;15.20;99.90;;;;;;5122059;27;20061;-86
2023/08/27 06:57:15;;;;;;;1.83;1.73;;;14.90;99.90;;;;;;5135749;27;20035;-87
2023/08/27 06:59:41;;;;;;;1.70;1.60;;;14.90;99.90;;;;;;5101230;27;20047;-87
2023/08/27 07:02:06;;;;;;;1.77;1.67;;;15.20;99.90;;;;;;5106544;27;20051;-85
2023/08/27 07:04:32;;;;;;;1.65;1.55;;;15.20;99.90;;;;;;5122859;27;20073;-86
2023/08/27 07:06:58;;;;;;;1.58;1.48;;;14.80;99.90;;;;;;5104583;27;20042;-86
2023/08/27 07:09:25;;;;;;;1.63;1.52;;;14.90;99.90;;;;;;5126333;27;20050;-87
2023/08/27 07:11:51;;;;;;;1.73;1.63;;;15.10;99.90;;;;;;5143086;27;20749;-86
2023/08/27 07:14:17;;;;;;;1.55;1.45;;;15.20;99.90;;;;;;5111106;27;20523;-86
2023/08/27 07:16:43;;;;;;;1.60;1.50;;;14.90;99.90;;;;;;5109571;27;20042;-85
2023/08/27 07:19:09;;;;;;;1.52;1.42;;;14.90;99.90;;;;;;5100875;27;20042;-85
2023/08/27 07:21:34;;;;;;;1.20;1.20;;;15.20;99.90;;;;;;5122715;27;20041;-88
2023/08/27 07:24:00;;;;;;;1.40;1.40;;;15.20;99.90;;;;;;5125569;27;20043;-88
2023/08/27 07:26:26;;;;;;;1.20;1.20;;;15.60;99.90;;;;;;5113784;27;20050;-87
2023/08/27 07:28:58;;;;;;;1.20;1.20;;;15.60;99.90;;;;;;5111362;27;20770;-87
2023/08/27 07:31:24;;;;;;;1.27;1.27;;;15.80;99.90;;;;;;5122603;27;20047;-85
2023/08/27 07:33:50;;;;;;;1.25;1.25;;;16.30;99.90;;;;;;5103598;27;20107;-86
2023/08/27 07:36:15;;;;;;;1.30;1.30;;;16.50;99.90;;;;;;5109830;27;20042;-86
2023/08/27 07:38:42;;;;;;;1.25;1.25;;;16.50;99.90;;;;;;5124845;27;20043;-86
2023/08/27 07:41:08;;;;;;;1.27;1.27;;;16.90;99.90;;;;;;5125979;27;20105;-85
2023/08/27 07:43:34;;;;;;;1.58;1.48;;;16.80;99.90;;;;;;5126846;27;20035;-86
2023/08/27 07:46:00;;;;;;;1.58;1.48;;;17.00;99.90;;;;;;5109498;27;20043;-87
2023/08/27 07:48:27;;;;;;;1.30;1.30;;;17.10;99.90;;;;;;5125531;27;20709;-85
2023/08/27 07:50:52;;;;;;;1.27;1.27;;;17.10;99.90;;;;;;5122681;27;20055;-90
2023/08/27 07:53:18;;;;;;;1.30;1.30;;;17.20;99.90;;;;;;5125573;27;20138;-87
2023/08/27 07:55:44;;;;;;;0.93;0.93;;;17.10;99.90;;;;;;5125008;27;20035;-86
2023/08/27 07:58:09;;;;;;;1.10;1.10;;;17.40;99.90;;;;;;5106711;27;20047;-87
2023/08/27 08:00:35;;;;;;;0.80;0.80;;;17.30;99.90;;;;;;5105264;27;20412;-87
2023/08/27 08:03:01;;;;;;;0.90;0.90;;;17.70;99.90;;;;;;5125140;27;20038;-87
2023/08/27 08:05:26;;;;;;;0.80;0.80;;;18.00;99.90;;;;;;5105869;27;20039;-86
2023/08/27 08:07:52;;;;;;;0.70;0.70;;;18.30;99.90;;;;;;5125536;27;20054;-89
2023/08/27 08:10:18;;;;;;;0.70;0.70;;;18.30;99.90;;;;;;5102170;27;21737;-94
2023/08/27 08:12:44;;;;;;;0.60;0.60;;;18.20;99.90;;;;;;5112046;27;20035;-87
2023/08/27 08:15:10;;;;;;;0.70;0.70;;;18.20;99.90;;;;;;5123778;27;20448;-89
2023/08/27 08:17:36;;;;;;;0.70;0.70;;;18.00;99.90;;;;;;5111035;27;20050;-89
2023/08/27 08:20:02;;;;;;;0.70;0.70;;;17.80;99.90;;;;;;5127518;27;20403;-90
2023/08/27 08:22:28;;;;;;;0.60;0.60;;;17.70;99.90;;;;;;5120746;27;20488;-94
2023/08/27 08:24:57;;;;;;;0.60;0.60;;;17.60;99.90;;;;;;5109354;27;20484;-90
2023/08/27 08:27:23;;;;;;;0.70;0.70;;;17.50;99.90;;;;;;5124183;27;20047;-90
2023/08/27 08:29:49;;;;;;;0.60;0.60;;;17.80;99.90;;;;;;5121896;27;20047;-88
2023/08/27 08:32:15;;;;;;;0.60;0.60;;;18.30;99.90;;;;;;5105167;27;20177;-88
2023/08/27 08:34:41;;;;;;;0.60;0.60;;;18.30;99.90;;;;;;5123941;27;20049;-86
2023/08/27 08:37:07;;;;;;;0.60;0.60;;;18.40;99.90;;;;;;5123812;27;20069;-89
2023/08/27 08:39:33;;;;;;;0.60;0.60;;;18.70;99.90;;;;;;5122138;27;20042;-86
2023/08/27 08:42:19;;;;;;;0.50;0.50;;;18.90;99.90;;;;;;5118339;27;20816;-87
2023/08/27 08:45:18;;;;;;;0.50;0.50;;;18.70;99.90;;;;;;5122488;27;20557;-89
2023/08/27 08:47:45;;;;;;;0.60;0.60;;;19.00;99.90;;;;;;5117689;27;20126;-87
2023/08/27 08:50:25;;;;;;;0.60;0.60;;;19.10;99.90;;;;;;5106129;27;20096;-87
2023/08/27 08:52:53;;;;;;;0.60;0.60;;;19.00;99.90;;;;;;5119233;27;20058;-88
2023/08/27 08:55:22;;;;;;;0.65;0.65;;;19.40;99.90;;;;;;5120051;27;20770;-91
2023/08/27 08:57:54;;;;;;;0.60;0.60;;;19.40;99.90;;;;;;5106236;27;20047;-88
2023/08/27 09:00:21;;;;;;;0.60;0.60;;;19.30;99.90;;;;;;5120121;27;20412;-84
2023/08/27 09:02:47;;;;;;;0.60;0.60;;;19.60;99.90;;;;;;5119464;27;20031;-86
2023/08/27 09:05:20;;;;;;;0.60;0.60;;;19.90;99.90;;;;;;5104750;27;20129;-87
2023/08/27 09:07:48;;;;;;;0.60;0.60;;;20.00;99.90;;;;;;5111334;27;20046;-82
2023/08/27 09:10:14;;;;;;;0.60;0.60;;;19.80;99.90;;;;;;5120595;27;20055;-88
2023/08/27 09:12:40;;;;;;;0.60;0.60;;;19.90;99.90;;;;;;5108035;27;20051;-89
2023/08/27 09:15:09;;;;;;;0.60;0.60;;;20.20;99.90;;;;;;5105355;27;20531;-88
2023/08/27 09:17:37;;;;;;;0.60;0.60;;;19.80;99.90;;;;;;5123079;27;20035;-86
2023/08/27 09:20:04;;;;;;;0.60;0.60;;;20.00;99.90;;;;;;5124158;27;20053;-87
2023/08/27 09:22:30;;;;;;;0.60;0.60;;;20.00;99.90;;;;;;5123087;27;20046;-85
2023/08/27 09:24:56;;;;;;;0.55;0.55;;;20.50;99.90;;;;;;5123236;27;20073;-84
2023/08/27 09:27:22;;;;;;;0.50;0.50;;;20.40;99.90;;;;;;5107678;27;20589;-84
2023/08/27 09:29:51;;;;;;;0.50;0.50;;;20.40;99.90;;;;;;5105624;27;20077;-87
2023/08/27 09:32:23;;;;;;;0.50;0.50;;;20.30;99.90;;;;;;5107417;27;20122;-86
2023/08/27 09:34:56;;;;;;;0.50;0.50;;;20.50;99.90;;;;;;5103931;27;20039;-85
2023/08/27 09:37:22;;;;;;;0.50;0.50;;;20.90;99.90;;;;;;5128464;27;21835;-83
2023/08/27 09:39:49;;;;;;;0.50;0.50;;;21.00;99.90;;;;;;5122539;27;20043;-84
2023/08/27 09:42:16;;;;;;;0.50;0.50;;;21.10;99.90;;;;;;5124013;27;20057;-88
2023/08/27 09:44:52;;;;;;;0.50;0.50;;;20.70;99.90;;;;;;5118733;27;20155;-84
2023/08/27 09:47:34;;;;;;;0.50;0.50;;;20.20;99.90;;;;;;5123579;27;20529;-83
2023/08/27 09:50:04;;;;;;;0.50;0.50;;;19.80;99.90;;;;;;5107664;27;20106;-84
2023/08/27 09:52:30;;;;;;;0.50;0.50;;;20.50;99.90;;;;;;5122180;27;20663;-86
2023/08/27 09:54:56;;;;;;;0.50;0.50;;;20.80;99.90;;;;;;5101369;27;20043;-85
2023/08/27 09:57:21;;;;;;;0.50;0.50;;;21.10;99.90;;;;;;5122514;27;20104;-82
2023/08/27 09:59:48;;;;;;;0.50;0.50;;;20.80;99.90;;;;;;5123607;27;20125;-83
2023/08/27 10:02:15;;;;;;;0.50;0.50;;;20.50;99.90;;;;;;5120623;27;20086;-86
2023/08/27 10:04:49;;;;;;;0.50;0.50;;;20.60;99.90;;;;;;5122758;27;20038;-88
2023/08/27 10:07:16;;;;;;;0.50;0.50;;;20.30;99.90;;;;;;5116230;27;20059;-87
2023/08/27 10:09:45;;;;;;;0.50;0.50;;;20.00;99.90;;;;;;5105511;27;20043;-86
2023/08/27 10:12:12;;;;;;;0.50;0.50;;;20.50;99.90;;;;;;5121587;27;20054;-90
2023/08/27 10:14:42;;;;;;;0.50;0.50;;;21.10;99.90;;;;;;5118491;27;20783;-88
2023/08/27 10:17:09;;;;;;;0.50;0.50;;;20.60;99.90;;;;;;5121773;27;20426;-85
2023/08/27 10:19:37;;;;;;;0.50;0.50;;;20.60;99.90;;;;;;5104366;27;20480;-86
2023/08/27 10:22:04;;;;;;;0.50;0.50;;;20.70;99.90;;;;;;5124597;27;20054;-84
2023/08/27 10:24:30;;;;;;;0.50;0.50;;;20.20;99.90;;;;;;5105339;27;20049;-86
2023/08/27 10:27:00;;;;;;;0.50;0.50;;;20.90;99.90;;;;;;5117800;27;20055;-82
2023/08/27 10:29:28;;;;;;;0.50;0.50;;;21.70;99.90;;;;;;5099571;27;20050;-86
2023/08/27 10:31:54;;;;;;;0.50;0.50;;;21.70;99.90;;;;;;5105381;27;20502;-82
2023/08/27 10:34:23;;;;;;;0.50;0.50;;;20.80;99.90;;;;;;5121351;27;20050;-85
2023/08/27 10:36:52;;;;;;;0.45;0.45;;;20.90;99.90;;;;;;5123943;27;20034;-83
2023/08/27 10:39:25;;;;;;;0.50;0.50;;;21.70;99.90;;;;;;5119538;27;20050;-84
2023/08/27 10:41:51;;;;;;;0.40;0.40;;;22.10;99.90;;;;;;5122172;27;20096;-88
2023/08/27 10:44:20;;;;;;;0.40;0.40;;;22.20;99.90;;;;;;5119419;27;20047;-84
2023/08/27 10:47:13;;;;;;;0.40;0.40;;;22.40;99.90;;;;;;5105245;27;20039;-91
2023/08/27 10:49:40;;;;;;;0.40;0.40;;;21.70;99.90;;;;;;5119847;27;20062;-88
2023/08/27 10:52:15;;;;;;;0.50;0.50;;;22.00;99.90;;;;;;5121844;27;20078;-87
2023/08/27 10:54:40;;;;;;;0.40;0.40;;;22.20;99.90;;;;;;5123407;27;20116;-85
2023/08/27 10:57:23;;;;;;;0.50;0.50;;;22.10;99.90;;;;;;5103562;27;20461;-85
2023/08/27 10:59:51;;;;;;;0.50;0.50;;;21.40;99.90;;;;;;5117864;27;20134;-86
2023/08/27 11:02:17;;;;;;;0.50;0.50;;;21.30;99.90;;;;;;5103543;27;20043;-86
2023/08/27 11:04:48;;;;;;;0.50;0.50;;;21.20;99.90;;;;;;5119413;27;20648;-85
2023/08/27 11:07:18;;;;;;;0.50;0.50;;;21.70;99.90;;;;;;5118747;27;20050;-82
2023/08/27 11:09:54;;;;;;;0.45;0.45;;;21.80;99.90;;;;;;5121005;27;20066;-82
2023/08/27 11:12:32;;;;;;;0.50;0.50;;;22.40;99.90;;;;;;5119889;27;20127;-87
2023/08/27 11:15:14;;;;;;;0.50;0.50;;;22.60;99.90;;;;;;5106152;27;20110;-84
2023/08/27 11:17:41;;;;;;;0.50;0.50;;;22.60;99.90;;;;;;5121516;27;20126;-86
2023/08/27 11:20:25;;;;;;;0.50;0.50;;;22.50;99.90;;;;;;5106431;27;20511;-84
2023/08/27 11:23:02;;;;;;;0.50;0.50;;;22.80;99.90;;;;;;5103839;27;20031;-81
2023/08/27 11:25:30;;;;;;;0.60;0.60;;;22.80;99.90;;;;;;5120523;27;20047;-83
2023/08/27 11:27:59;;;;;;;0.60;0.60;;;22.00;99.90;;;;;;5120353;27;20051;-86
2023/08/27 11:30:26;;;;;;;0.60;0.60;;;21.50;99.90;;;;;;5102968;27;20039;-87
2023/08/27 11:32:54;;;;;;;0.63;0.63;;;21.10;99.90;;;;;;5104012;27;20150;-90
2023/08/27 11:35:25;;;;;;;0.60;0.60;;;20.80;99.90;;;;;;5119536;27;20034;-86
2023/08/27 11:37:51;;;;;;;0.60;0.60;;;20.70;99.90;;;;;;5107010;27;21015;-87
2023/08/27 11:40:18;;;;;;;0.50;0.50;;;20.70;99.90;;;;;;5120941;27;20583;-87
2023/08/27 11:42:57;;;;;;;0.50;0.50;;;20.50;99.90;;;;;;5103528;27;20059;-84
2023/08/27 11:45:36;;;;;;;0.50;0.50;;;20.50;99.90;;;;;;5120790;27;20035;-86
2023/08/27 11:48:05;;;;;;;0.50;0.50;;;20.30;99.90;;;;;;5118580;27;20578;-89
2023/08/27 11:50:32;;;;;;;0.50;0.50;;;20.30;99.90;;;;;;5120273;27;20034;-86
2023/08/27 11:52:58;;;;;;;0.50;0.50;;;20.00;99.90;;;;;;5123382;27;20049;-87
2023/08/27 11:55:25;;;;;;;0.50;0.50;;;19.90;99.90;;;;;;5124592;27;20115;-84
2023/08/27 11:57:53;;;;;;;0.50;0.50;;;19.80;99.90;;;;;;5110664;27;20053;-84
2023/08/27 12:00:20;;;;;;;0.50;0.50;;;19.80;99.90;;;;;;5124093;27;20067;-87
2023/08/27 12:02:46;;;;;;;0.50;0.50;;;19.70;99.90;;;;;;5126212;27;20050;-84
2023/08/27 12:05:12;;;;;;;0.50;0.50;;;19.50;99.90;;;;;;5108096;27;20153;-85
2023/08/27 12:07:38;;;;;;;0.40;0.40;;;19.40;99.90;;;;;;5123451;27;20122;-87
2023/08/27 12:10:08;;;;;;;0.50;0.50;;;19.20;99.90;;;;;;5126419;27;20495;-84
2023/08/27 12:12:41;;;;;;;0.50;0.50;;;19.00;99.90;;;;;;5126771;27;20050;-86
2023/08/27 12:15:08;;;;;;;0.50;0.50;;;18.60;99.90;;;;;;5110118;27;20043;-87
2023/08/27 12:17:35;;;;;;;0.50;0.50;;;18.40;99.90;;;;;;5113744;27;20042;-90
2023/08/27 12:20:05;;;;;;;0.55;0.55;;;18.00;99.90;;;;;;5121963;27;20058;-84
2023/08/27 12:22:39;;;;;;;0.60;0.60;;;17.80;99.90;;;;;;5124883;27;20488;-83
2023/08/27 12:25:06;;;;;;;0.60;0.60;;;17.70;99.90;;;;;;5109545;27;20042;-83
2023/08/27 12:27:32;;;;;;;0.60;0.60;;;17.40;99.90;;;;;;5125342;27;20047;-85
2023/08/27 12:29:57;;;;;;;0.60;0.60;;;17.40;99.90;;;;;;5095419;27;20091;-88
2023/08/27 12:32:32;;;;;;;0.73;0.73;;;17.40;99.90;;;;;;5110487;27;20499;-84
2023/08/27 12:34:58;;;;;;;0.82;0.82;;;17.30;99.90;;;;;;5119924;27;20091;-84
2023/08/27 12:37:27;;;;;;;0.73;0.73;;;17.30;99.90;;;;;;5134616;27;20047;-87
2023/08/27 12:39:53;;;;;;;0.70;0.70;;;17.30;99.90;;;;;;5105160;27;20047;-86
2023/08/27 12:42:22;;;;;;;0.70;0.70;;;17.40;99.90;;;;;;5123967;27;20072;-82
2023/08/27 12:44:47;;;;;;;0.60;0.60;;;17.60;99.90;;;;;;5124534;27;20039;-85
2023/08/27 12:47:13;;;;;;;0.60;0.60;;;17.70;99.90;;;;;;5123159;27;20043;-86
2023/08/27 12:49:40;;;;;;;0.60;0.60;;;18.10;99.90;;;;;;5120999;27;20039;-87
2023/08/27 12:52:06;;;;;;;0.60;0.60;;;18.30;99.90;;;;;;5123725;27;20051;-84